Portada
METAR-TAF:

METAR-TAF

Aeroports :

Lexington, Carolina del Nord, Estats Units d'Amèrica

latitud: 35-46-52N, longitud: 080-18-14W, altitud: 223 m

Observació

L'informe es va fer fa 20 minuts, a les 12:35 UTC
Vent calma
Temperatura 6°C
Humitat 100%
Pressió 1011 hPa
Visibilitat: 0.4 km
Cel cobert a una alçada de 100 ft
boira

METAR: KEXX 191235Z AUTO 00000KT 1/4SM FG OVC001 06/06 A2984 RMK AO2 T00580058

Hora: 07:55 (12:55 UTC)


TAF: manca

Observacions i pronòstics meteorològics de més de 4000 aeroports (METAR i TAF).

Les estacions disponibles són els punts grocs i vermells al mapa.

Posi el ratolí al punt desitjat per veure el nom de l'estació.

Feu clic per veure les observacions i els pronòstics meteorològics.

Per canviar el mapa: feu clic els botons verds amb una creu de color negre per apropar; al botó verd amb un guió per allunyar la imatge; o en les fletxes verdes per a mapes adjacents.


METAR-TAF: